createdAt,value
2022-10-12T00:00:16.966Z,10.36
2022-10-12T00:01:16.406Z,10.37
2022-10-12T00:02:17.015Z,10.37
2022-10-12T00:03:16.627Z,10.33
2022-10-12T00:04:17.106Z,10.33
2022-10-12T00:05:16.577Z,10.31
2022-10-12T00:06:17.034Z,10.33
2022-10-12T00:07:16.499Z,10.34
2022-10-12T00:08:16.976Z,10.34
2022-10-12T00:09:16.436Z,10.36
2022-10-12T00:10:16.861Z,10.30
2022-10-12T00:11:16.290Z,10.31
2022-10-12T00:12:16.991Z,10.29
2022-10-12T00:13:16.410Z,10.30
2022-10-12T00:14:16.883Z,10.29
2022-10-12T00:15:16.324Z,10.31
2022-10-12T00:16:16.824Z,10.33
2022-10-12T00:17:16.303Z,10.23
2022-10-12T00:18:16.762Z,10.23
2022-10-12T00:19:16.406Z,10.23
2022-10-12T00:20:16.872Z,10.23
2022-10-12T00:21:16.337Z,10.17
2022-10-12T00:22:17.122Z,10.19
2022-10-12T00:23:16.544Z,10.20
2022-10-12T00:24:16.988Z,10.20
2022-10-12T00:25:16.443Z,10.16
2022-10-12T00:26:16.876Z,10.20
2022-10-12T00:27:16.315Z,10.19
2022-10-12T00:28:16.764Z,10.14
2022-10-12T00:29:16.335Z,10.10
2022-10-12T00:30:16.839Z,10.13
2022-10-12T00:31:16.332Z,10.09
2022-10-12T00:32:16.983Z,10.12
2022-10-12T00:33:16.449Z,10.06
2022-10-12T00:34:16.935Z,10.08
2022-10-12T00:35:16.388Z,10.06
2022-10-12T00:36:16.838Z,10.06
2022-10-12T00:37:17.281Z,10.02
2022-10-12T00:38:16.719Z,10.01
2022-10-12T00:39:17.130Z,10.01
2022-10-12T00:40:16.596Z,9.98
2022-10-12T00:41:17.016Z,9.99
2022-10-12T00:42:16.755Z,9.96
2022-10-12T00:43:17.482Z,9.95
2022-10-12T00:44:16.963Z,9.91
2022-10-12T00:45:16.414Z,9.88
2022-10-12T00:46:16.923Z,9.91
2022-10-12T00:47:16.411Z,9.88
2022-10-12T00:48:16.895Z,9.88
2022-10-12T00:49:16.354Z,9.89
2022-10-12T00:50:16.857Z,9.89
2022-10-12T00:51:16.318Z,9.89
2022-10-12T00:52:16.551Z,9.91
2022-10-12T00:53:16.973Z,9.91
2022-10-12T00:54:16.386Z,9.92
2022-10-12T00:55:16.819Z,9.92
2022-10-12T00:56:17.275Z,9.96
2022-10-12T00:57:16.737Z,9.92
2022-10-12T00:58:17.187Z,9.92
2022-10-12T00:59:16.648Z,9.91
2022-10-12T01:00:17.106Z,9.91
2022-10-12T01:01:16.615Z,9.91
2022-10-12T01:02:16.675Z,9.86
2022-10-12T01:03:17.131Z,9.88
2022-10-12T01:04:16.611Z,9.88
2022-10-12T01:05:17.048Z,9.89
2022-10-12T01:06:16.485Z,9.93
2022-10-12T01:07:16.910Z,9.92
2022-10-12T01:08:16.375Z,9.89
2022-10-12T01:09:16.791Z,9.88
2022-10-12T01:10:17.263Z,9.91
2022-10-12T01:11:16.682Z,9.91
2022-10-12T01:12:16.388Z,9.86
2022-10-12T01:13:16.859Z,9.88
2022-10-12T01:14:16.356Z,9.86
2022-10-12T01:15:16.822Z,9.86
2022-10-12T01:16:17.268Z,9.88
2022-10-12T01:17:16.774Z,9.85
2022-10-12T01:18:17.534Z,9.86
2022-10-12T01:19:17.026Z,9.86
2022-10-12T01:20:16.474Z,9.84
2022-10-12T01:21:16.913Z,9.86
2022-10-12T01:22:16.696Z,9.84
2022-10-12T01:23:17.122Z,9.85
2022-10-12T01:24:16.584Z,9.84
2022-10-12T01:25:17.017Z,9.80
2022-10-12T01:26:16.435Z,9.75
2022-10-12T01:27:16.904Z,9.72
2022-10-12T01:28:16.399Z,9.71
2022-10-12T01:29:16.946Z,9.72
2022-10-12T01:30:16.404Z,9.71
2022-10-12T01:31:16.884Z,9.71
2022-10-12T01:32:16.280Z,9.71
2022-10-12T01:33:16.700Z,9.69
2022-10-12T01:34:17.127Z,9.69
2022-10-12T01:35:16.585Z,9.59
2022-10-12T01:36:17.041Z,9.55
2022-10-12T01:37:16.487Z,9.55
2022-10-12T01:38:16.958Z,9.45
2022-10-12T01:39:16.391Z,9.44
2022-10-12T01:40:16.843Z,9.41
2022-10-12T01:41:16.287Z,9.38
2022-10-12T01:42:16.339Z,9.37
2022-10-12T01:43:16.811Z,9.36
2022-10-12T01:44:17.263Z,9.34
2022-10-12T01:45:16.741Z,9.27
2022-10-12T01:46:17.195Z,9.23
2022-10-12T01:47:16.634Z,9.20
2022-10-12T01:48:17.216Z,9.15
2022-10-12T01:49:16.655Z,9.17
2022-10-12T01:50:17.079Z,9.20
2022-10-12T01:51:16.552Z,9.16
2022-10-12T01:52:17.074Z,9.07
2022-10-12T01:53:16.516Z,9.05
2022-10-12T01:54:16.983Z,9.10
2022-10-12T01:55:16.449Z,9.07
2022-10-12T01:56:16.943Z,9.12
2022-10-12T01:57:16.437Z,9.02
2022-10-12T01:58:16.910Z,8.99
2022-10-12T01:59:16.388Z,8.99
2022-10-12T02:00:16.874Z,8.95
2022-10-12T02:01:16.351Z,8.91
2022-10-12T02:02:17.282Z,8.85
2022-10-12T02:03:16.723Z,8.88
2022-10-12T02:04:17.189Z,8.91
2022-10-12T02:05:16.626Z,8.91
2022-10-12T02:06:17.076Z,8.91
2022-10-12T02:07:16.509Z,8.86
2022-10-12T02:08:16.984Z,8.85
2022-10-12T02:09:16.449Z,8.82
2022-10-12T02:10:16.949Z,8.84
2022-10-12T02:11:16.434Z,8.82
2022-10-12T02:12:16.923Z,8.59
2022-10-12T02:13:16.386Z,8.61
2022-10-12T02:14:16.895Z,8.72
2022-10-12T02:15:16.348Z,8.76
2022-10-12T02:16:16.782Z,8.76
2022-10-12T02:17:17.224Z,8.75
2022-10-12T02:18:16.662Z,8.71
2022-10-12T02:19:17.109Z,8.72
2022-10-12T02:20:16.573Z,8.62
2022-10-12T02:21:16.995Z,8.61
2022-10-12T02:22:16.490Z,8.61
2022-10-12T02:23:16.994Z,8.61
2022-10-12T02:24:16.479Z,8.61
2022-10-12T02:25:16.947Z,8.62
2022-10-12T02:26:16.413Z,8.64
2022-10-12T02:27:16.871Z,8.64
2022-10-12T02:28:16.338Z,8.62
2022-10-12T02:29:16.885Z,8.68
2022-10-12T02:30:20.870Z,8.67
2022-10-12T02:31:16.751Z,8.68
2022-10-12T02:32:16.390Z,8.65
2022-10-12T02:33:16.815Z,8.61
2022-10-12T02:34:17.271Z,8.58
2022-10-12T02:35:16.690Z,8.55
2022-10-12T02:36:17.129Z,8.55
2022-10-12T02:37:16.613Z,8.51
2022-10-12T02:38:17.067Z,8.47
2022-10-12T02:39:16.532Z,8.45
2022-10-12T02:40:17.019Z,8.44
2022-10-12T02:41:16.485Z,8.48
2022-10-12T02:42:17.303Z,8.47
2022-10-12T02:43:16.767Z,8.41
2022-10-12T02:44:17.233Z,8.41
2022-10-12T02:45:16.713Z,8.40
2022-10-12T02:46:17.136Z,8.39
2022-10-12T02:47:16.580Z,8.34
2022-10-12T02:48:17.023Z,8.37
2022-10-12T02:49:16.473Z,8.33
2022-10-12T02:50:16.961Z,8.30
2022-10-12T02:51:16.410Z,8.27
2022-10-12T02:52:17.063Z,8.27
2022-10-12T02:53:16.574Z,8.21
2022-10-12T02:54:17.064Z,8.31
2022-10-12T02:55:16.560Z,8.40
2022-10-12T02:56:17.048Z,8.41
2022-10-12T02:57:16.501Z,8.39
2022-10-12T02:58:17.007Z,8.40
2022-10-12T02:59:16.465Z,8.36
2022-10-12T03:00:16.928Z,8.33
2022-10-12T03:01:16.454Z,8.26
2022-10-12T03:02:17.250Z,8.26
2022-10-12T03:03:16.668Z,8.26
2022-10-12T03:04:17.110Z,8.19
2022-10-12T03:05:16.533Z,8.17
2022-10-12T03:06:16.984Z,8.17
2022-10-12T03:07:16.435Z,8.20
2022-10-12T03:08:16.908Z,8.17
2022-10-12T03:09:16.354Z,8.12
2022-10-12T03:10:16.795Z,8.09
2022-10-12T03:11:17.255Z,8.06
2022-10-12T03:12:16.888Z,8.08
2022-10-12T03:13:16.360Z,8.02
2022-10-12T03:14:16.799Z,8.02
2022-10-12T03:15:17.241Z,7.98
2022-10-12T03:16:16.700Z,7.96
2022-10-12T03:17:17.135Z,7.93
2022-10-12T03:18:16.554Z,7.92
2022-10-12T03:19:16.980Z,7.89
2022-10-12T03:20:16.432Z,7.88
2022-10-12T03:21:16.865Z,7.85
2022-10-12T03:22:16.881Z,7.85
2022-10-12T03:23:16.405Z,7.85
2022-10-12T03:24:16.862Z,7.85
2022-10-12T03:25:16.322Z,7.82
2022-10-12T03:26:16.779Z,7.80
2022-10-12T03:27:17.259Z,7.81
2022-10-12T03:28:16.768Z,7.75
2022-10-12T03:29:16.317Z,7.78
2022-10-12T03:30:16.761Z,7.72
2022-10-12T03:31:17.209Z,7.72
2022-10-12T03:32:16.932Z,7.62
2022-10-12T03:33:16.369Z,7.57
2022-10-12T03:34:16.809Z,7.51
2022-10-12T03:35:17.267Z,7.53
2022-10-12T03:36:16.714Z,7.55
2022-10-12T03:37:17.164Z,7.51
2022-10-12T03:38:16.670Z,7.48
2022-10-12T03:39:17.172Z,7.50
2022-10-12T03:40:16.647Z,7.44
2022-10-12T03:41:17.108Z,7.43
2022-10-12T03:42:16.639Z,7.44
2022-10-12T03:43:17.074Z,7.47
2022-10-12T03:44:16.519Z,7.47
2022-10-12T03:45:16.987Z,7.40
2022-10-12T03:46:16.417Z,7.38
2022-10-12T03:47:16.844Z,7.41
2022-10-12T03:48:17.536Z,7.40
2022-10-12T03:49:16.955Z,7.37
2022-10-12T03:50:16.412Z,7.33
2022-10-12T03:51:16.867Z,7.34
2022-10-12T03:52:16.509Z,7.27
2022-10-12T03:53:16.988Z,7.30
2022-10-12T03:54:16.468Z,7.33
2022-10-12T03:55:16.922Z,7.38
2022-10-12T03:56:16.401Z,7.29
2022-10-12T03:57:16.861Z,7.29
2022-10-12T03:58:16.325Z,7.26
2022-10-12T03:59:16.746Z,7.23
2022-10-12T04:00:17.171Z,7.24
2022-10-12T04:01:16.650Z,7.23
2022-10-12T04:02:16.993Z,7.19
2022-10-12T04:03:16.733Z,7.20
2022-10-12T04:04:17.160Z,7.17
2022-10-12T04:05:16.624Z,7.13
2022-10-12T04:06:17.100Z,7.10
2022-10-12T04:07:16.561Z,7.15
2022-10-12T04:08:17.039Z,7.12
2022-10-12T04:09:16.496Z,7.10
2022-10-12T04:10:16.952Z,7.02
2022-10-12T04:11:16.476Z,6.94
2022-10-12T04:12:16.349Z,6.89
2022-10-12T04:13:16.785Z,6.78
2022-10-12T04:14:17.213Z,6.76
2022-10-12T04:15:16.693Z,6.75
2022-10-12T04:16:17.213Z,6.75
2022-10-12T04:17:16.695Z,6.68
2022-10-12T04:18:17.401Z,6.67
2022-10-12T04:19:16.854Z,6.63
2022-10-12T04:20:16.339Z,6.68
2022-10-12T04:21:16.812Z,6.71
2022-10-12T04:22:17.266Z,6.75
2022-10-12T04:23:16.739Z,6.79
2022-10-12T04:24:17.202Z,6.82
2022-10-12T04:25:16.670Z,6.82
2022-10-12T04:26:17.122Z,6.78
2022-10-12T04:27:16.569Z,6.74
2022-10-12T04:28:17.095Z,6.72
2022-10-12T04:29:16.747Z,6.68
2022-10-12T04:30:17.191Z,6.68
2022-10-12T04:31:16.642Z,6.68
2022-10-12T04:32:16.852Z,6.69
2022-10-12T04:33:17.274Z,6.71
2022-10-12T04:34:16.711Z,6.67
2022-10-12T04:35:17.192Z,6.64
2022-10-12T04:36:16.673Z,6.63
2022-10-12T04:37:17.155Z,6.64
2022-10-12T04:38:16.607Z,6.65
2022-10-12T04:39:17.077Z,6.64
2022-10-12T04:40:16.548Z,6.65
2022-10-12T04:41:17.033Z,6.64
2022-10-12T04:42:16.304Z,6.61
2022-10-12T04:43:16.734Z,6.59
2022-10-12T04:44:17.171Z,6.57
2022-10-12T04:45:16.589Z,6.55
2022-10-12T04:46:17.064Z,6.52
2022-10-12T04:47:16.497Z,6.59
2022-10-12T04:48:16.950Z,6.57
2022-10-12T04:49:16.416Z,6.52
2022-10-12T04:50:16.909Z,6.47
2022-10-12T04:51:16.366Z,6.43
2022-10-12T04:52:16.957Z,6.44
2022-10-12T04:53:16.450Z,6.43
2022-10-12T04:54:16.915Z,6.34
2022-10-12T04:55:16.381Z,6.24
2022-10-12T04:56:16.851Z,6.20
2022-10-12T04:57:17.316Z,6.13
2022-10-12T04:58:16.743Z,6.17
2022-10-12T04:59:17.174Z,6.19
2022-10-12T05:00:16.599Z,6.19
2022-10-12T05:01:17.077Z,6.20
2022-10-12T05:02:16.655Z,6.21
2022-10-12T05:03:17.091Z,6.19
2022-10-12T05:04:16.533Z,6.20
2022-10-12T05:05:16.985Z,6.17
2022-10-12T05:06:16.424Z,6.17
2022-10-12T05:07:16.886Z,6.20
2022-10-12T05:08:16.402Z,6.17
2022-10-12T05:09:17.117Z,6.17
2022-10-12T05:10:16.896Z,6.17
2022-10-12T05:11:16.366Z,6.19
2022-10-12T05:12:16.826Z,6.17
2022-10-12T05:13:17.275Z,6.14
2022-10-12T05:14:16.750Z,6.13
2022-10-12T05:15:17.176Z,6.13
2022-10-12T05:16:16.624Z,6.12
2022-10-12T05:17:17.089Z,6.16
2022-10-12T05:18:16.511Z,6.14
2022-10-12T05:19:17.068Z,6.12
2022-10-12T05:20:16.507Z,6.10
2022-10-12T05:21:16.950Z,6.09
2022-10-12T05:22:17.272Z,6.06
2022-10-12T05:23:16.736Z,6.08
2022-10-12T05:24:17.213Z,6.12
2022-10-12T05:25:16.677Z,6.08
2022-10-12T05:26:17.141Z,6.09
2022-10-12T05:27:16.587Z,6.06
2022-10-12T05:28:17.040Z,6.08
2022-10-12T05:29:16.599Z,6.06
2022-10-12T05:30:17.022Z,6.06
2022-10-12T05:31:16.444Z,6.09
2022-10-12T05:32:17.253Z,6.12
2022-10-12T05:33:16.697Z,6.10
2022-10-12T05:34:17.174Z,6.12
2022-10-12T05:35:16.629Z,6.12
2022-10-12T05:36:17.105Z,6.10
2022-10-12T05:37:16.635Z,6.16
2022-10-12T05:38:17.141Z,6.16
2022-10-12T05:39:16.610Z,6.14
2022-10-12T05:40:17.117Z,6.14
2022-10-12T05:41:16.616Z,6.14
2022-10-12T05:42:16.892Z,6.19
2022-10-12T05:43:16.337Z,6.19
2022-10-12T05:44:16.778Z,6.20
2022-10-12T05:45:17.231Z,6.21
2022-10-12T05:46:16.661Z,6.20
2022-10-12T05:47:17.120Z,6.23
2022-10-12T05:48:16.541Z,6.24
2022-10-12T05:49:16.995Z,6.33
2022-10-12T05:50:16.462Z,6.33
2022-10-12T05:51:16.939Z,6.33
2022-10-12T05:52:16.686Z,6.34
2022-10-12T05:53:17.209Z,6.34
2022-10-12T05:54:16.676Z,6.29
2022-10-12T05:55:17.152Z,6.33
2022-10-12T05:56:16.604Z,6.30
2022-10-12T05:57:17.074Z,6.33
2022-10-12T05:58:16.521Z,6.33
2022-10-12T05:59:16.957Z,6.36
2022-10-12T06:00:16.611Z,6.37
2022-10-12T06:01:17.097Z,6.37
2022-10-12T06:02:16.674Z,6.34
2022-10-12T06:03:18.407Z,6.36
2022-10-12T06:04:17.184Z,6.37
2022-10-12T06:05:16.638Z,6.44
2022-10-12T06:06:17.107Z,6.48
2022-10-12T06:07:16.550Z,6.51
2022-10-12T06:08:17.016Z,6.52
2022-10-12T06:09:16.479Z,6.51
2022-10-12T06:10:16.929Z,6.55
2022-10-12T06:11:16.404Z,6.61
2022-10-12T06:12:17.175Z,6.63
2022-10-12T06:13:16.659Z,6.74
2022-10-12T06:14:17.091Z,6.78
2022-10-12T06:15:16.520Z,6.81
2022-10-12T06:16:16.959Z,6.85
2022-10-12T06:17:16.436Z,6.88
2022-10-12T06:18:16.886Z,6.95
2022-10-12T06:19:16.350Z,6.95
2022-10-12T06:20:16.864Z,7.03
2022-10-12T06:21:33.796Z,7.05
2022-10-12T06:22:17.290Z,7.06
2022-10-12T06:23:16.755Z,7.03
2022-10-12T06:24:17.198Z,7.10
2022-10-12T06:25:16.656Z,7.10
2022-10-12T06:26:17.099Z,7.19
2022-10-12T06:27:16.538Z,7.19
2022-10-12T06:28:17.043Z,7.17
2022-10-12T06:29:16.667Z,7.23
2022-10-12T06:30:17.103Z,7.26
2022-10-12T06:31:16.539Z,7.27
2022-10-12T06:32:16.399Z,7.34
2022-10-12T06:33:16.860Z,7.37
2022-10-12T06:34:16.585Z,7.35
2022-10-12T06:35:17.026Z,7.41
2022-10-12T06:36:16.521Z,7.50
2022-10-12T06:37:37.482Z,7.55
2022-10-12T06:38:16.395Z,7.61
2022-10-12T06:39:16.854Z,7.61
2022-10-12T06:40:17.274Z,7.59
2022-10-12T06:41:16.722Z,7.64
2022-10-12T06:42:16.547Z,7.65
2022-10-12T06:43:16.974Z,7.59
2022-10-12T06:44:16.396Z,7.61
2022-10-12T06:45:16.842Z,7.68
2022-10-12T06:46:16.319Z,7.68
2022-10-12T06:47:16.820Z,7.77
2022-10-12T06:48:18.504Z,7.84
2022-10-12T06:49:16.480Z,7.80
2022-10-12T06:50:16.950Z,7.85
2022-10-12T06:51:16.412Z,7.91
2022-10-12T06:52:17.083Z,7.93
2022-10-12T06:53:16.533Z,7.95
2022-10-12T06:54:17.001Z,7.99
2022-10-12T06:55:16.426Z,8.03
2022-10-12T06:56:16.909Z,8.05
2022-10-12T06:57:16.357Z,7.96
2022-10-12T06:58:16.809Z,8.00
2022-10-12T06:59:17.225Z,7.96
2022-10-12T07:00:16.693Z,7.99
2022-10-12T07:01:17.233Z,8.03
2022-10-12T07:02:16.803Z,8.12
2022-10-12T07:03:17.295Z,8.23
2022-10-12T07:04:16.757Z,8.26
2022-10-12T07:05:17.272Z,8.30
2022-10-12T07:06:16.732Z,8.27
2022-10-12T07:07:17.180Z,8.24
2022-10-12T07:08:16.648Z,8.30
2022-10-12T07:09:17.123Z,8.31
2022-10-12T07:10:16.588Z,8.34
2022-10-12T07:11:17.020Z,8.44
2022-10-12T07:12:16.456Z,8.39
2022-10-12T07:13:16.885Z,8.44
2022-10-12T07:14:16.311Z,8.51
2022-10-12T07:15:16.754Z,8.50
2022-10-12T07:16:17.199Z,8.55
2022-10-12T07:17:16.641Z,8.62
2022-10-12T07:18:17.109Z,8.67
2022-10-12T07:19:16.585Z,8.71
2022-10-12T07:20:17.045Z,8.72
2022-10-12T07:21:16.550Z,8.74
2022-10-12T07:22:16.631Z,8.67
2022-10-12T07:23:17.072Z,8.67
2022-10-12T07:24:16.500Z,8.74
2022-10-12T07:25:16.953Z,8.79
2022-10-12T07:26:16.385Z,8.82
2022-10-12T07:27:16.841Z,8.86
2022-10-12T07:28:17.278Z,8.85
2022-10-12T07:29:16.816Z,8.92
2022-10-12T07:30:17.297Z,8.92
2022-10-12T07:31:16.804Z,8.84
2022-10-12T07:32:16.364Z,8.84
2022-10-12T07:33:16.854Z,8.69
2022-10-12T07:34:16.325Z,8.64
2022-10-12T07:35:16.770Z,8.80
2022-10-12T07:36:21.063Z,8.76
2022-10-12T07:37:16.854Z,8.82
2022-10-12T07:38:16.542Z,8.94
2022-10-12T07:39:16.972Z,8.86
2022-10-12T07:40:16.407Z,8.85
2022-10-12T07:41:16.832Z,8.91
2022-10-12T07:42:19.214Z,8.88
2022-10-12T07:43:17.186Z,8.84
2022-10-12T07:44:16.686Z,8.89
2022-10-12T07:45:17.157Z,8.99
2022-10-12T07:46:16.650Z,9.00
2022-10-12T07:47:17.107Z,9.12
2022-10-12T07:48:16.605Z,9.19
2022-10-12T07:49:17.048Z,9.20
2022-10-12T07:50:16.539Z,9.29
2022-10-12T07:51:17.009Z,9.37
2022-10-12T07:52:16.517Z,9.27
2022-10-12T07:53:16.981Z,9.26
2022-10-12T07:54:19.097Z,9.26
2022-10-12T07:55:16.783Z,9.31
2022-10-12T07:56:17.256Z,9.33
2022-10-12T07:57:16.704Z,9.38
2022-10-12T07:58:17.180Z,9.34
2022-10-12T07:59:16.648Z,9.36
2022-10-12T08:00:17.126Z,9.37
2022-10-12T08:01:16.623Z,9.36
2022-10-12T08:02:17.139Z,9.36
2022-10-12T08:03:16.649Z,9.37
2022-10-12T08:04:17.172Z,9.40
2022-10-12T08:05:16.677Z,9.47
2022-10-12T08:06:17.131Z,9.43
2022-10-12T08:07:16.554Z,9.51
2022-10-12T08:08:17.031Z,9.54
2022-10-12T08:09:16.472Z,9.64
2022-10-12T08:10:16.909Z,9.74
2022-10-12T08:11:16.340Z,9.76
2022-10-12T08:12:17.089Z,9.86
2022-10-12T08:13:16.567Z,9.89
2022-10-12T08:14:17.044Z,9.99
2022-10-12T08:15:16.505Z,10.10
2022-10-12T08:16:16.970Z,10.12
2022-10-12T08:17:16.462Z,10.13
2022-10-12T08:18:16.942Z,10.21
2022-10-12T08:19:16.395Z,10.23
2022-10-12T08:20:16.823Z,10.26
2022-10-12T08:21:17.303Z,10.26
2022-10-12T08:22:17.181Z,10.24
2022-10-12T08:23:16.627Z,10.30
2022-10-12T08:24:17.064Z,10.31
2022-10-12T08:25:16.513Z,10.41
2022-10-12T08:26:16.948Z,10.39
2022-10-12T08:27:16.403Z,10.33
2022-10-12T08:28:16.892Z,10.41
2022-10-12T08:29:16.457Z,10.54
2022-10-12T08:30:16.947Z,10.63
2022-10-12T08:31:16.397Z,10.67
2022-10-12T08:32:17.183Z,10.84
2022-10-12T08:33:16.668Z,10.89
2022-10-12T08:34:17.147Z,10.89
2022-10-12T08:35:16.605Z,10.89
2022-10-12T08:36:17.026Z,10.89
2022-10-12T08:37:16.478Z,10.89
2022-10-12T08:38:16.910Z,10.87
2022-10-12T08:39:16.337Z,10.91
2022-10-12T08:40:16.780Z,10.98
2022-10-12T08:41:17.247Z,10.99
2022-10-12T08:42:16.551Z,11.06
2022-10-12T08:43:17.034Z,11.03
2022-10-12T08:44:16.490Z,11.02
2022-10-12T08:45:16.943Z,11.09
2022-10-12T08:46:16.438Z,11.07
2022-10-12T08:47:16.927Z,11.12
2022-10-12T08:48:16.386Z,11.27
2022-10-12T08:49:16.832Z,11.33
2022-10-12T08:50:17.473Z,11.27
2022-10-12T08:51:17.088Z,11.25
2022-10-12T08:52:16.968Z,11.20
2022-10-12T08:53:16.420Z,11.29
2022-10-12T08:54:16.869Z,11.33
2022-10-12T08:55:16.294Z,11.36
2022-10-12T08:56:16.746Z,11.31
2022-10-12T08:57:17.212Z,11.39
2022-10-12T08:58:16.680Z,11.42
2022-10-12T08:59:17.143Z,11.57
2022-10-12T09:00:16.618Z,11.63
2022-10-12T09:01:17.120Z,11.70
2022-10-12T09:02:16.847Z,11.70
2022-10-12T09:03:16.418Z,11.72
2022-10-12T09:04:16.871Z,11.81
2022-10-12T09:05:16.349Z,11.86
2022-10-12T09:06:16.821Z,11.88
2022-10-12T09:07:17.250Z,11.95
2022-10-12T09:08:16.706Z,11.99
2022-10-12T09:09:17.127Z,12.08
2022-10-12T09:10:16.594Z,12.13
2022-10-12T09:11:17.135Z,12.25
2022-10-12T09:12:16.483Z,12.28
2022-10-12T09:13:16.957Z,12.30
2022-10-12T09:14:16.436Z,12.33
2022-10-12T09:15:16.918Z,12.41
2022-10-12T09:16:16.383Z,12.49
2022-10-12T09:17:16.833Z,12.46
2022-10-12T09:18:17.287Z,12.44
2022-10-12T09:19:16.744Z,12.41
2022-10-12T09:20:17.185Z,12.51
2022-10-12T09:21:16.627Z,12.50
2022-10-12T09:22:16.629Z,12.53
2022-10-12T09:23:17.070Z,12.70
2022-10-12T09:24:16.543Z,12.70
2022-10-12T09:25:16.980Z,12.71
2022-10-12T09:26:16.449Z,12.78
2022-10-12T09:27:16.896Z,12.75
2022-10-12T09:28:16.415Z,12.79
2022-10-12T09:29:16.933Z,12.85
2022-10-12T09:30:16.396Z,13.01
2022-10-12T09:31:16.857Z,13.09
2022-10-12T09:32:16.608Z,13.15
2022-10-12T09:33:17.108Z,13.14
2022-10-12T09:34:19.145Z,13.15
2022-10-12T09:35:17.329Z,13.25
2022-10-12T09:36:16.533Z,13.33
2022-10-12T09:37:16.998Z,13.43
2022-10-12T09:38:16.418Z,13.43
2022-10-12T09:39:16.836Z,13.46
2022-10-12T09:40:17.292Z,13.39
2022-10-12T09:41:16.745Z,13.36
2022-10-12T09:42:16.875Z,13.33
2022-10-12T09:43:16.365Z,13.34
2022-10-12T09:44:16.828Z,13.36
2022-10-12T09:45:16.670Z,13.29
2022-10-12T09:46:16.750Z,13.44
2022-10-12T09:47:17.211Z,13.40
2022-10-12T09:48:16.660Z,13.43
2022-10-12T09:49:17.115Z,13.43
2022-10-12T09:50:16.570Z,13.50
2022-10-12T09:51:16.996Z,13.51
2022-10-12T09:52:16.473Z,13.44
2022-10-12T09:53:16.916Z,13.50
2022-10-12T09:54:16.386Z,13.53
2022-10-12T09:55:17.325Z,13.60
2022-10-12T09:56:16.823Z,13.58
2022-10-12T09:57:16.472Z,13.58
2022-10-12T09:58:16.926Z,13.50
2022-10-12T09:59:16.384Z,13.51
2022-10-12T10:00:17.087Z,13.57
2022-10-12T10:01:16.659Z,13.68
2022-10-12T10:02:17.259Z,13.68
2022-10-12T10:03:16.707Z,13.73
2022-10-12T10:04:17.124Z,13.74
2022-10-12T10:05:16.556Z,13.70
2022-10-12T10:06:17.024Z,13.81
2022-10-12T10:07:16.455Z,13.87
2022-10-12T10:08:16.872Z,14.05
2022-10-12T10:09:16.390Z,14.08
2022-10-12T10:10:17.312Z,14.01
2022-10-12T10:11:16.600Z,14.04
2022-10-12T10:12:16.937Z,14.16
2022-10-12T10:13:16.430Z,14.09
2022-10-12T10:14:16.950Z,14.12
2022-10-12T10:15:16.447Z,14.23
2022-10-12T10:16:16.908Z,14.44
2022-10-12T10:17:16.349Z,14.43
2022-10-12T10:18:16.770Z,14.44
2022-10-12T10:19:17.194Z,14.46
2022-10-12T10:20:16.788Z,14.43
2022-10-12T10:21:16.701Z,14.39
2022-10-12T10:22:16.772Z,14.47
2022-10-12T10:23:17.242Z,14.59
2022-10-12T10:24:16.711Z,14.53
2022-10-12T10:25:17.183Z,14.66
2022-10-12T10:27:17.107Z,14.71
2022-10-12T10:28:16.614Z,14.70
2022-10-12T10:29:17.201Z,14.80
2022-10-12T10:30:29.347Z,14.87
2022-10-12T10:31:16.929Z,14.90
2022-10-12T10:32:16.959Z,14.83
2022-10-12T10:33:16.405Z,14.85
2022-10-12T10:34:16.839Z,14.77
2022-10-12T10:35:17.295Z,14.73
2022-10-12T10:36:16.720Z,14.73
2022-10-12T10:37:17.188Z,14.73
2022-10-12T10:38:16.620Z,14.78
2022-10-12T10:39:17.093Z,14.81
2022-10-12T10:40:16.729Z,14.90
2022-10-12T10:41:16.767Z,14.88
2022-10-12T10:42:16.555Z,14.91
2022-10-12T10:43:17.051Z,14.90
2022-10-12T10:44:21.051Z,14.87
2022-10-12T10:45:16.753Z,14.71
2022-10-12T10:46:16.669Z,14.80
2022-10-12T10:47:17.124Z,14.78
2022-10-12T10:48:16.550Z,14.78
2022-10-12T10:49:16.984Z,14.91
2022-10-12T10:50:16.735Z,14.99
2022-10-12T10:51:16.955Z,15.15
2022-10-12T10:52:16.556Z,15.29
2022-10-12T10:53:17.010Z,15.43
2022-10-12T10:54:16.465Z,15.21
2022-10-12T10:55:16.936Z,15.29
2022-10-12T10:56:16.385Z,15.31
2022-10-12T10:57:16.892Z,15.36
2022-10-12T10:58:16.401Z,15.36
2022-10-12T10:59:16.896Z,15.42
2022-10-12T11:00:37.092Z,15.50
2022-10-12T11:01:16.433Z,15.33
2022-10-12T11:02:16.457Z,15.39
2022-10-12T11:03:16.923Z,15.49
2022-10-12T11:04:16.499Z,15.49
2022-10-12T11:05:17.122Z,15.71
2022-10-12T11:06:17.224Z,15.76
2022-10-12T11:07:16.688Z,15.91
2022-10-12T11:08:17.174Z,15.88
2022-10-12T11:09:16.625Z,15.95
2022-10-12T11:10:17.096Z,15.95
2022-10-12T11:11:16.577Z,16.00
2022-10-12T11:12:16.458Z,15.92
2022-10-12T11:13:16.903Z,15.85
2022-10-12T11:14:16.342Z,15.90
2022-10-12T11:15:16.781Z,16.07
2022-10-12T11:16:17.205Z,16.17
2022-10-12T11:17:16.641Z,16.24
2022-10-12T11:18:17.078Z,16.33
2022-10-12T11:19:16.513Z,16.21
2022-10-12T11:20:19.527Z,16.09
2022-10-12T11:21:16.546Z,15.98
2022-10-12T11:22:17.055Z,16.09
2022-10-12T11:23:16.529Z,16.01
2022-10-12T11:24:16.978Z,16.19
2022-10-12T11:25:16.449Z,16.25
2022-10-12T11:26:16.914Z,16.28
2022-10-12T11:27:16.393Z,16.36
2022-10-12T11:28:16.891Z,16.35
2022-10-12T11:29:16.517Z,16.12
2022-10-12T11:30:16.971Z,16.15
2022-10-12T11:31:16.395Z,16.24
2022-10-12T11:32:20.577Z,16.21
2022-10-12T11:33:16.407Z,16.24
2022-10-12T11:34:16.871Z,16.31
2022-10-12T11:35:16.341Z,16.40
2022-10-12T11:36:16.791Z,16.33
2022-10-12T11:37:19.846Z,16.42
2022-10-12T11:38:16.564Z,16.39
2022-10-12T11:39:20.485Z,16.35
2022-10-12T11:40:16.803Z,16.46
2022-10-12T11:41:34.228Z,16.31
2022-10-12T11:42:21.645Z,16.52
2022-10-12T11:43:17.249Z,16.50
2022-10-12T11:44:16.675Z,16.40
2022-10-12T11:45:17.106Z,16.25
2022-10-12T11:46:16.571Z,16.29
2022-10-12T11:47:17.000Z,16.50
2022-10-12T11:48:16.417Z,16.36
2022-10-12T11:49:16.866Z,16.45
2022-10-12T11:50:16.380Z,16.45
2022-10-12T11:51:16.846Z,16.53
2022-10-12T11:52:16.566Z,16.64
2022-10-12T11:53:17.018Z,16.93
2022-10-12T11:54:16.797Z,16.73
2022-10-12T11:55:16.886Z,16.81
2022-10-12T11:56:16.377Z,17.04
2022-10-12T11:57:16.848Z,17.10
2022-10-12T11:58:16.353Z,16.83
2022-10-12T11:59:16.812Z,16.81
2022-10-12T12:00:17.247Z,16.78
2022-10-12T12:01:16.708Z,16.88
2022-10-12T12:02:16.892Z,16.94
2022-10-12T12:03:16.429Z,16.98
2022-10-12T12:04:29.503Z,16.68
2022-10-12T12:05:17.096Z,16.80
2022-10-12T12:06:16.785Z,16.86
2022-10-12T12:07:17.289Z,17.04
2022-10-12T12:08:16.788Z,17.07
2022-10-12T12:09:17.311Z,16.64
2022-10-12T12:10:16.776Z,16.62
2022-10-12T12:11:17.230Z,16.78
2022-10-12T12:12:16.818Z,16.87
2022-10-12T12:13:17.293Z,16.94
2022-10-12T12:14:16.730Z,16.97
2022-10-12T12:15:17.154Z,16.94
2022-10-12T12:16:16.601Z,16.90
2022-10-12T12:17:17.044Z,16.83
2022-10-12T12:18:16.492Z,16.78
2022-10-12T12:19:16.992Z,16.78
2022-10-12T12:20:16.477Z,16.80
2022-10-12T12:21:16.952Z,16.98
2022-10-12T12:22:16.681Z,17.07
2022-10-12T12:23:17.184Z,16.93
2022-10-12T12:24:16.661Z,16.78
2022-10-12T12:25:17.134Z,16.83
2022-10-12T12:26:17.245Z,16.80
2022-10-12T12:27:17.030Z,16.62
2022-10-12T12:28:16.488Z,16.77
2022-10-12T12:29:17.030Z,16.77
2022-10-12T12:30:16.458Z,16.88
2022-10-12T12:31:16.916Z,16.86
2022-10-12T12:32:16.354Z,16.84
2022-10-12T12:33:16.796Z,16.70
2022-10-12T12:34:17.288Z,16.68
2022-10-12T12:35:16.752Z,16.87
2022-10-12T12:36:17.229Z,16.84
2022-10-12T12:37:16.694Z,16.95
2022-10-12T12:38:17.223Z,17.00
2022-10-12T12:39:16.682Z,16.71
2022-10-12T12:40:17.153Z,16.78
2022-10-12T12:41:16.589Z,17.08
2022-10-12T12:42:16.556Z,17.10
2022-10-12T12:43:17.003Z,17.05
2022-10-12T12:44:16.428Z,17.01
2022-10-12T12:45:16.856Z,16.95
2022-10-12T12:46:16.287Z,16.73
2022-10-12T12:47:44.906Z,16.71
2022-10-12T12:48:18.382Z,16.80
2022-10-12T12:49:16.440Z,16.93
2022-10-12T12:50:16.920Z,16.77
2022-10-12T12:51:16.366Z,16.84
2022-10-12T12:52:16.748Z,16.97
2022-10-12T12:53:17.192Z,16.98
2022-10-12T12:54:16.928Z,16.86
2022-10-12T12:55:16.398Z,16.91
2022-10-12T12:56:16.887Z,17.04
2022-10-12T12:57:16.308Z,17.14
2022-10-12T12:58:16.771Z,17.17
2022-10-12T12:59:17.198Z,17.01
2022-10-12T13:00:16.787Z,17.00
2022-10-12T13:01:16.493Z,17.18
2022-10-12T13:02:16.620Z,17.25
2022-10-12T13:03:17.068Z,17.24
2022-10-12T13:04:16.549Z,17.33
2022-10-12T13:05:17.006Z,17.36
2022-10-12T13:06:16.466Z,17.25
2022-10-12T13:07:16.929Z,17.26
2022-10-12T13:08:16.391Z,17.38